createdAt,value
2019-03-13T00:17:22.229Z,12.93
2019-03-13T00:26:43.500Z,11.83
2019-03-13T02:41:25.361Z,16.87
2019-03-13T02:59:03.170Z,14.77
2019-03-13T03:01:49.659Z,11.97
2019-03-13T03:04:45.526Z,11.67
2019-03-13T03:07:50.344Z,12.93
2019-03-13T03:13:28.427Z,13.57
2019-03-13T03:22:05.698Z,14.07
2019-03-13T03:25:03.144Z,13.97
2019-03-13T03:30:18.030Z,16.10
2019-03-13T03:35:53.770Z,10.00
2019-03-13T03:38:47.611Z,10.80
2019-03-13T03:41:35.025Z,10.20
2019-03-13T03:49:50.198Z,9.83
2019-03-13T04:01:19.070Z,10.20
2019-03-13T04:12:57.697Z,9.63
2019-03-13T04:37:37.983Z,8.60
2019-03-13T04:43:05.692Z,9.00
2019-03-13T04:49:12.366Z,7.13
2019-03-13T04:58:08.818Z,7.63
2019-03-13T05:00:53.026Z,7.53
2019-03-13T05:03:53.599Z,8.97
2019-03-13T05:12:52.233Z,8.60
2019-03-13T05:15:58.158Z,6.93
2019-03-13T05:18:30.793Z,7.03
2019-03-13T05:21:03.319Z,6.00
2019-03-13T05:23:43.522Z,5.50
2019-03-13T05:26:21.853Z,5.47
2019-03-13T05:29:37.216Z,5.00
2019-03-13T05:32:18.842Z,5.33
2019-03-13T05:35:26.116Z,6.27
2019-03-13T05:41:43.657Z,7.03
2019-03-13T05:44:14.014Z,8.10
2019-03-13T05:46:44.375Z,8.87
2019-03-13T05:49:16.303Z,10.63
2019-03-13T05:51:47.496Z,9.90
2019-03-13T05:57:10.942Z,7.60
2019-03-13T05:59:44.560Z,8.27
2019-03-13T06:02:15.865Z,7.93
2019-03-13T06:04:46.458Z,7.37
2019-03-13T06:07:16.190Z,7.17
2019-03-13T06:09:48.979Z,7.23
2019-03-13T06:12:19.425Z,7.73
2019-03-13T06:14:50.373Z,7.20
2019-03-13T06:17:20.155Z,6.93
2019-03-13T06:19:51.494Z,7.00
2019-03-13T06:22:22.152Z,8.33
2019-03-13T06:24:52.861Z,8.90
2019-03-13T06:27:24.667Z,8.63
2019-03-13T06:29:55.740Z,8.80
2019-03-13T06:32:27.198Z,8.13
2019-03-13T06:34:57.214Z,6.50
2019-03-13T06:37:27.104Z,7.57
2019-03-13T06:39:57.720Z,7.70
2019-03-13T06:42:28.027Z,7.40
2019-03-13T06:45:01.193Z,6.60
2019-03-13T06:47:32.679Z,7.00
2019-03-13T06:50:03.663Z,6.23
2019-03-13T06:52:33.400Z,5.47
2019-03-13T06:55:05.855Z,6.20
2019-03-13T06:57:36.702Z,4.97
2019-03-13T07:00:25.342Z,6.03
2019-03-13T07:03:10.515Z,6.13
2019-03-13T07:06:03.274Z,5.80
2019-03-13T07:08:52.223Z,5.80
2019-03-13T07:11:38.590Z,6.13
2019-03-13T07:14:43.456Z,5.47
2019-03-13T07:17:34.187Z,6.03
2019-03-13T07:20:49.551Z,6.23
2019-03-13T07:23:40.638Z,5.37
2019-03-13T07:26:51.420Z,5.47
2019-03-13T08:34:59.565Z,4.20
2019-03-13T08:45:27.422Z,5.13
2019-03-13T08:48:45.278Z,5.20
2019-03-13T08:54:58.095Z,4.63
2019-03-13T08:57:37.503Z,4.60
2019-03-13T09:00:46.333Z,4.83
2019-03-13T09:03:25.763Z,5.30
2019-03-13T09:06:08.711Z,5.53
2019-03-13T09:09:10.382Z,5.10
2019-03-13T09:11:59.421Z,4.87
2019-03-13T09:15:03.954Z,4.67
2019-03-13T09:17:57.683Z,4.93
2019-03-13T09:20:38.050Z,4.90
2019-03-13T09:23:27.355Z,4.47
2019-03-13T09:26:31.694Z,4.40
2019-03-13T09:29:26.598Z,4.53
2019-03-13T09:32:33.425Z,3.53
2019-03-13T09:35:09.737Z,3.53
2019-03-13T09:37:58.835Z,3.77
2019-03-13T09:41:05.873Z,4.10
2019-03-13T09:43:54.027Z,4.13
2019-03-13T09:46:30.939Z,3.80
2019-03-13T09:49:19.169Z,3.87
2019-03-13T09:51:58.120Z,4.13
2019-03-13T09:54:45.249Z,3.90
2019-03-13T09:57:32.641Z,4.50
2019-03-13T10:00:23.847Z,3.70
2019-03-13T10:03:12.754Z,3.97
2019-03-13T10:06:03.876Z,3.77
2019-03-13T10:09:01.109Z,3.97
2019-03-13T10:11:49.657Z,4.70
2019-03-13T10:14:39.106Z,3.67
2019-03-13T10:17:17.715Z,3.43
2019-03-13T10:20:06.567Z,3.60
2019-03-13T10:22:56.418Z,5.13
2019-03-13T10:25:49.203Z,3.87
2019-03-13T10:28:31.817Z,3.60
2019-03-13T10:31:20.477Z,3.70
2019-03-13T10:34:10.320Z,3.70
2019-03-13T10:37:05.007Z,3.83
2019-03-13T10:39:57.806Z,3.87
2019-03-13T10:42:46.550Z,3.70
2019-03-13T10:45:35.321Z,3.50
2019-03-13T10:48:27.689Z,3.90
2019-03-13T10:51:17.213Z,3.63
2019-03-13T10:54:07.952Z,4.20
2019-03-13T10:57:00.747Z,3.83
2019-03-13T10:59:57.916Z,4.83
2019-03-13T11:06:32.642Z,3.80
2019-03-13T11:09:58.469Z,3.70
2019-03-13T11:20:12.694Z,3.80
2019-03-13T11:30:27.784Z,3.67
2019-03-13T11:33:13.263Z,3.40
2019-03-13T11:36:08.810Z,3.97
2019-03-13T11:39:36.656Z,4.30
2019-03-13T11:42:35.322Z,4.33
2019-03-13T11:45:17.208Z,4.20
2019-03-13T11:47:59.521Z,4.43
2019-03-13T11:54:12.852Z,3.80
2019-03-13T11:57:11.302Z,4.10
2019-03-13T11:59:58.902Z,4.50
2019-03-13T12:02:54.331Z,4.30
2019-03-13T12:05:59.069Z,4.43
2019-03-13T12:09:19.948Z,4.87
2019-03-13T12:19:52.367Z,4.60
2019-03-13T15:01:45.735Z,7.00
2019-03-13T15:10:30.616Z,7.50
2019-03-13T15:22:11.681Z,7.50
2019-03-13T15:40:26.497Z,6.67
2019-03-13T16:21:55.387Z,9.80
2019-03-13T20:30:22.552Z,11.53
2019-03-13T21:00:11.141Z,11.30
2019-03-13T21:06:00.702Z,10.80
2019-03-13T21:08:54.391Z,11.13
2019-03-13T21:11:33.970Z,10.27
2019-03-13T21:20:25.625Z,10.70
2019-03-13T22:18:44.902Z,11.60
2019-03-13T22:32:29.618Z,12.43
2019-03-13T23:00:18.790Z,12.23
2019-03-13T23:06:40.544Z,13.10
2019-03-13T23:09:14.574Z,12.60
2019-03-13T23:11:59.200Z,13.50
2019-03-13T23:15:00.944Z,12.57
2019-03-13T23:25:02.843Z,15.40
2019-03-13T23:27:44.951Z,15.97
2019-03-13T23:33:56.715Z,16.60
